Latest Weather Observations for Morawa Airport

IDW60801

Issued at 5:02 pm WST Friday 28 August 2015 (issued every 30 minutes, with the page automatically refreshed every 10 minutes)

About weather observations | Map of weather stations | Latest weather observations for WA | Other Formats
Station Details ID: 008296 Name: MORAWA AIRPORT Lat: -29.20 Lon: 116.02 Height: 271.4 m
Data from the previous 72 hours. | See also: Recent months at Morawa Airport
Date/Time
WST
Temp
°C
App
Temp
°C
Dew
Point
Rel
Hum
%
Delta-T
°C
Wind Press
QNH
hPa
Press
MSL
hPa
Rain
since 9 am
mm
Dir
 
Spd
km/h
Gust
km/h
Spd
kts
Gust
kts
28/05:00pm 22.2 19.3 8.0 40 7.5 WSW 13 19 7 10 1015.3 1015.1 0.0
28/04:30pm 22.9 20.6 9.0 41 7.5 W 11 15 6 8 1015.2 1015.0 0.0
28/04:00pm 23.3 20.8 8.2 38 8.1 WSW 11 17 6 9 1015.1 1014.9 0.0
28/03:30pm 23.6 21.5 6.0 32 9.1 WNW 6 15 3 8 1015.1 1014.9 0.0
28/03:00pm 23.6 21.9 6.0 32 9.1 WNW 4 9 2 5 1015.2 1015.0 0.0
28/02:30pm 23.8 21.4 5.2 30 9.5 WSW 7 13 4 7 1015.3 1015.1 0.0
28/02:00pm 23.4 21.2 6.2 33 8.9 NW 7 13 4 7 1015.5 1015.3 0.0
28/01:30pm 22.9 20.6 5.8 33 8.8 W 7 11 4 6 1015.9 1015.8 0.0
28/01:00pm 22.0 20.4 6.3 36 8.1 WSW 4 11 2 6 1016.2 1016.1 0.0
28/12:30pm 21.5 19.7 5.4 35 8.1 W 4 7 2 4 1016.7 1016.6 0.0
28/12:00pm 21.4 19.1 5.7 36 7.9 WNW 7 13 4 7 1017.2 1017.1 0.0
28/11:30am 20.2 19.4 8.2 46 6.3 WSW 2 7 1 4 1017.6 1017.4 0.0
28/11:00am 19.6 18.9 10.0 54 5.2 W 4 7 2 4 1017.9 1017.7 0.0
28/10:30am 18.4 18.4 11.2 63 4.0 WNW 2 4 1 2 1018.2 1018.0 0.0
28/10:00am 17.2 17.4 11.9 71 2.9 WSW 2 9 1 5 1018.6 1018.4 0.0
28/09:30am 16.7 16.4 12.7 77 2.2 W 6 11 3 6 1018.9 1018.7 0.0
28/09:00am 15.8 16.1 13.3 85 1.4 WNW 4 11 2 6 1019.1 1019.0 0.0
28/08:30am 15.5 16.1 15.3 99 0.1 N 6 9 3 5 1018.8 1018.6 0.0
28/08:00am 13.7 14.1 13.7 100 0.0 NNE 4 6 2 3 1018.6 1018.4 0.0
28/07:30am 13.0 13.2 13.0 100 0.0 NNE 4 9 2 5 1018.4 1018.2 0.0
28/07:00am 11.9 11.4 11.9 100 0.0 NE 6 6 3 3 1018.2 1018.0 0.0
28/06:30am 12.5 12.5 12.5 100 0.0 NE 4 6 2 3 1018.0 1017.8 0.0
28/06:00am 12.8 13.7 12.8 100 0.0 CALM 0 0 0 0 1017.8 1017.6 0.0
28/05:30am 12.8 13.7 12.8 100 0.0 CALM 0 0 0 0 1017.5 1017.3 0.0
28/05:00am 12.6 13.4 12.6 100 0.0 CALM 0 0 0 0 1017.4 1017.2 0.0
28/04:30am 12.6 13.4 12.6 100 0.0 CALM 0 0 0 0 1017.2 1017.1 0.0
28/04:00am 12.6 13.4 12.6 100 0.0 CALM 0 0 0 0 1017.1 1017.0 0.0
28/03:30am 12.3 12.6 12.3 100 0.0 ENE 2 6 1 3 1017.0 1016.9 0.0
28/03:00am 11.9 11.4 11.9 100 0.0 NE 6 7 3 4 1017.1 1017.0 0.0
28/02:30am 10.5 9.6 10.5 100 0.0 NE 6 9 3 5 1017.4 1017.2 0.0
28/02:00am 9.7 9.7 9.7 100 0.0 CALM 0 0 0 0 1017.2 1017.1 0.0
28/01:30am 11.3 11.3 11.3 100 0.0 W 2 2 1 1 1017.2 1017.1 0.0
28/01:00am 11.8 12.4 11.8 100 0.0 CALM 0 0 0 0 1017.1 1017.0 0.0
28/12:30am 12.4 13.2 12.4 100 0.0 CALM 0 0 0 0 1017.2 1017.1 0.0
28/12:00am 13.0 13.2 13.0 100 0.0 W 4 7 2 4 1017.4 1017.2 0.0
 
Date/Time
WST
Temp
°C
App
Temp
°C
Dew
Point
Rel
Hum
%
Delta-T
°C
Wind Press
QNH
hPa
Press
MSL
hPa
Rain
since 9 am
mm
Dir
 
Spd
km/h
Gust
km/h
Spd
kts
Gust
kts
27/11:30pm 13.3 12.6 13.3 100 0.0 W 9 13 5 7 1017.5 1017.3 0.0
27/11:00pm 12.9 12.7 12.9 100 0.0 WNW 6 9 3 5 1017.6 1017.4 0.0
27/10:30pm 12.9 12.5 12.9 100 0.0 NW 7 9 4 5 1017.7 1017.5 0.0
27/10:00pm 13.0 13.2 13.0 100 0.0 NW 4 6 2 3 1017.7 1017.5 0.0
27/09:30pm 13.6 13.7 12.8 95 0.4 WNW 4 7 2 4 1017.7 1017.5 0.0
27/09:00pm 14.4 14.5 12.8 90 0.9 W 4 6 2 3 1017.6 1017.4 0.0
27/08:30pm 15.1 14.6 12.6 85 1.4 W 7 11 4 6 1017.4 1017.2 0.0
27/08:00pm 15.8 14.0 12.0 78 2.1 W 13 19 7 10 1017.0 1016.9 0.0
27/07:30pm 16.6 14.8 10.9 69 3.1 W 11 15 6 8 1016.7 1016.6 0.0
27/07:00pm 17.6 15.4 10.7 64 3.7 W 13 17 7 9 1016.5 1016.4 0.0
27/06:30pm 18.6 15.7 10.9 61 4.2 W 17 22 9 12 1016.3 1016.2 0.0
27/06:00pm 19.8 16.5 11.0 57 4.9 W 19 28 10 15 1015.9 1015.8 0.0
27/05:30pm 21.4 18.5 11.1 52 5.8 W 17 24 9 13 1015.6 1015.4 0.0
27/05:00pm 23.4 20.4 9.4 41 7.7 WNW 15 20 8 11 1015.2 1015.0 0.0
27/04:30pm 24.1 19.9 5.9 31 9.4 WNW 17 26 9 14 1014.9 1014.7 0.0
27/04:00pm 24.6 21.4 8.5 36 8.7 WNW 15 24 8 13 1014.7 1014.5 0.0
27/03:30pm 24.6 20.8 7.7 34 9.0 NW 17 26 9 14 1014.8 1014.6 0.0
27/03:00pm 24.8 20.5 5.1 28 10.1 NW 17 28 9 15 1014.7 1014.5 0.0
27/02:30pm 25.1 19.1 3.1 24 10.9 NW 24 33 13 18 1014.7 1014.5 0.0
27/02:00pm 25.4 21.1 3.4 24 10.9 NW 15 26 8 14 1014.6 1014.4 0.0
27/01:30pm 25.6 20.7 4.1 25 10.9 NW 19 26 10 14 1014.8 1014.6 0.0
27/01:00pm 25.0 19.9 3.0 24 10.8 NNW 19 26 10 14 1015.2 1015.0 0.0
27/12:30pm 24.6 18.9 2.7 24 10.7 NNW 22 30 12 16 1015.5 1015.3 0.0
27/12:00pm 24.5 19.1 2.6 24 10.7 NNW 20 30 11 16 1015.8 1015.6 0.0
27/11:30am 23.8 20.4 4.2 28 9.8 NNW 11 17 6 9 1016.3 1016.2 0.0
27/11:00am 22.4 18.5 3.5 29 9.2 NNW 13 19 7 10 1016.8 1016.7 0.0
27/10:30am 21.8 17.1 3.0 29 9.1 NNE 17 28 9 15 1017.1 1017.0 0.0
27/10:00am 20.4 16.1 3.2 32 8.2 NNE 15 22 8 12 1017.5 1017.3 0.0
27/09:30am 18.4 14.8 3.1 36 7.2 NNE 11 20 6 11 1017.7 1017.5 0.0
27/09:00am 16.8 13.2 2.8 39 6.5 NE 11 13 6 7 1017.8 1017.6 0.0
27/08:30am 15.7 12.9 3.2 43 5.8 NE 7 11 4 6 1017.8 1017.6 0.0
27/08:00am 14.4 11.6 2.9 46 5.2 N 7 9 4 5 1017.7 1017.5 0.0
27/07:30am 13.8 11.0 3.0 48 4.9 NNE 7 9 4 5 1017.4 1017.2 0.0
27/07:00am 11.2 8.0 2.8 56 3.7 NE 9 11 5 6 1016.9 1016.8 0.0
27/06:30am 11.8 8.9 2.5 53 4.1 ENE 7 9 4 5 1016.7 1016.6 0.0
27/06:00am 12.8 9.5 2.4 49 4.6 ENE 9 11 5 6 1016.4 1016.3 0.0
27/05:30am 13.1 9.8 2.6 49 4.7 ENE 9 13 5 7 1016.2 1016.1 0.0
27/05:00am 12.4 9.8 4.1 57 3.8 ENE 7 9 4 5 1016.1 1016.0 0.0
27/04:30am 11.8 9.0 5.0 63 3.2 E 9 11 5 6 1016.2 1016.1 0.0
27/04:00am 11.4 9.4 6.3 71 2.4 SSW 6 7 3 4 1016.3 1016.2 0.0
27/03:30am 10.8 10.0 6.7 76 2.0 CALM 0 0 0 0 1016.2 1016.1 0.0
27/03:00am 11.1 9.3 5.4 68 2.7 E 4 6 2 3 1016.4 1016.3 0.0
27/02:30am 10.8 9.3 4.9 67 2.7 S 2 4 1 2 1016.6 1016.5 0.0
27/02:00am 11.7 9.8 4.7 62 3.2 E 4 6 2 3 1016.9 1016.8 0.0
27/01:30am 12.2 10.7 5.1 62 3.3 SE 2 4 1 2 1016.8 1016.7 0.0
27/01:00am 12.7 10.7 4.2 56 3.9 E 4 6 2 3 1017.0 1016.9 0.0
27/12:30am 12.4 10.0 5.1 61 3.4 ESE 7 9 4 5 1017.1 1017.0 0.0
27/12:00am 13.4 11.3 5.6 59 3.7 ESE 6 9 3 5 1017.6 1017.4 0.0
 
Date/Time
WST
Temp
°C
App
Temp
°C
Dew
Point
Rel
Hum
%
Delta-T
°C
Wind Press
QNH
hPa
Press
MSL
hPa
Rain
since 9 am
mm
Dir
 
Spd
km/h
Gust
km/h
Spd
kts
Gust
kts
26/11:30pm 13.3 11.7 6.2 62 3.4 SE 4 6 2 3 1017.9 1017.7 0.0
26/11:00pm 13.7 12.7 5.8 59 3.8 CALM 0 4 0 2 1018.1 1017.9 0.0
26/10:30pm 14.6 12.2 5.4 54 4.4 ESE 7 9 4 5 1018.2 1018.0 0.0
26/10:00pm 15.0 12.3 5.5 53 4.6 ESE 9 15 5 8 1018.4 1018.2 0.0
26/09:30pm 15.4 11.9 5.3 51 4.9 ESE 13 17 7 9 1018.3 1018.1 0.0
26/09:00pm 15.6 12.5 5.5 51 4.9 ESE 11 13 6 7 1018.5 1018.3 0.0
26/08:30pm 16.1 13.0 5.4 49 5.2 ESE 11 13 6 7 1018.4 1018.2 0.0
26/08:00pm 16.2 13.1 5.5 49 5.2 ESE 11 15 6 8 1018.3 1018.1 0.0
26/07:30pm 16.4 13.3 5.7 49 5.2 ESE 11 17 6 9 1018.4 1018.2 0.0
26/07:00pm 15.8 13.8 7.1 56 4.3 ESE 7 11 4 6 1018.3 1018.1 0.0
26/06:30pm 16.8 15.1 7.4 54 4.8 SE 6 7 3 4 1018.2 1018.0 0.0
26/06:00pm 18.2 16.7 6.7 47 5.8 E 4 6 2 3 1018.1 1017.9 0.0
26/05:30pm 19.1 17.0 5.6 41 6.7 E 6 6 3 3 1018.0 1017.8 0.0
26/05:00pm 19.5 17.7 5.6 40 6.9 E 4 7 2 4 1017.9 1017.7 0.0
26/04:30pm 20.8 18.7 4.0 33 8.2 E 4 9 2 5 1017.7 1017.5 0.0
26/04:00pm 22.4 19.5 2.5 27 9.5 ENE 7 17 4 9 1017.8 1017.6 0.0
26/03:30pm 22.7 19.3 1.7 25 9.9 N 9 15 5 8 1018.0 1017.8 0.0
26/03:00pm 22.6 19.7 2.7 27 9.6 NE 7 15 4 8 1018.0 1017.8 0.0
26/02:30pm 22.4 19.7 2.5 27 9.5 ENE 6 13 3 7 1018.2 1018.0 0.0
26/02:00pm 22.2 19.2 1.8 26 9.6 N 7 15 4 8 1018.4 1018.2 0.0
26/01:30pm 21.8 18.0 2.0 27 9.4 NE 11 20 6 11 1018.9 1018.7 0.0
26/01:00pm 21.5 17.7 3.7 31 8.7 NNE 13 20 7 11 1019.5 1019.4 0.0
26/12:30pm 21.3 17.6 4.4 33 8.3 NE 13 22 7 12 1020.0 1019.9 0.0
26/12:00pm 20.5 16.0 4.1 34 8.0 NE 17 26 9 14 1020.5 1020.4 0.0
26/11:30am 19.5 14.7 4.4 37 7.4 NE 19 26 10 14 1020.8 1020.7 0.0
26/11:00am 19.0 14.1 4.0 37 7.2 NNE 19 26 10 14 1021.3 1021.1 0.0
26/10:30am 17.9 12.8 4.1 40 6.6 NNE 20 30 11 16 1021.6 1021.4 0.0
26/10:00am 16.7 11.3 4.4 44 5.8 NNE 22 30 12 16 1021.7 1021.5 0.0
26/09:30am 15.2 10.1 4.0 47 5.2 NE 20 30 11 16 1021.9 1021.7 0.0
26/09:00am 13.4 8.4 3.5 51 4.5 NE 19 28 10 15 1022.0 1021.8 0.0
26/08:30am 12.6 9.1 3.3 53 4.2 NE 11 20 6 11 1021.9 1021.7 0.0
26/08:00am 10.9 7.7 3.0 58 3.5 NE 9 15 5 8 1021.6 1021.4 0.0
26/07:30am 9.3 6.5 3.3 66 2.6 NE 7 11 4 6 1021.4 1021.2 0.0
26/07:00am 8.3 5.5 3.0 69 2.3 NE 7 7 4 4 1021.0 1020.9 0.0
26/06:30am 7.7 4.4 2.6 70 2.2 NE 9 11 5 6 1020.6 1020.5 0.0
26/06:00am 8.1 4.8 2.6 68 2.3 NE 9 11 5 6 1020.5 1020.4 0.0
26/05:30am 7.7 4.4 2.6 70 2.2 ENE 9 9 5 5 1020.4 1020.3 0.0
26/05:00am 6.7 4.6 3.9 82 1.2 ENE 4 6 2 3 1020.2 1020.1 0.0
26/04:30am 7.1 5.7 3.5 78 1.6 CALM 0 0 0 0 1020.2 1020.1 0.0
26/04:00am 8.5 6.6 3.1 69 2.3 ENE 2 4 1 2 1020.2 1020.1 0.0
26/03:30am 8.4 5.2 3.3 70 2.2 ENE 9 11 5 6 1020.1 1020.0 0.0
26/03:00am 7.5 4.7 3.0 73 1.9 ENE 7 9 4 5 1020.2 1020.1 0.0
26/02:30am 6.5 4.0 4.0 84 1.1 E 6 7 3 4 1020.5 1020.4 0.0
26/02:00am 6.9 5.1 3.3 78 1.5 ENE 2 4 1 2 1020.8 1020.7 0.0
26/01:30am 8.6 5.8 3.2 69 2.3 NE 7 9 4 5 1021.0 1020.9 0.0
26/01:00am 7.7 5.2 3.6 75 1.8 NE 6 7 3 4 1021.1 1021.0 0.0
26/12:30am 8.2 5.7 3.5 72 2.0 ENE 6 7 3 4 1021.5 1021.3 0.0
26/12:00am 9.6 6.9 3.8 67 2.6 NE 7 9 4 5 1021.6 1021.4 0.0
 
Date/Time
WST
Temp
°C
App
Temp
°C
Dew
Point
Rel
Hum
%
Delta-T
°C
Wind Press
QNH
hPa
Press
MSL
hPa
Rain
since 9 am
mm
Dir
 
Spd
km/h
Gust
km/h
Spd
kts
Gust
kts
25/11:30pm 9.0 5.9 3.8 70 2.3 ENE 9 11 5 6 1021.9 1021.7 0.0
25/11:00pm 9.3 6.6 3.9 69 2.4 E 7 11 4 6 1022.2 1022.1 0.0
25/10:30pm 8.7 6.7 4.5 75 1.9 S 4 6 2 3 1022.5 1022.4 0.0
25/10:00pm 8.7 7.5 4.7 76 1.8 CALM 0 0 0 0 1022.9 1022.8 0.0
25/09:30pm 9.7 8.6 4.9 72 2.2 CALM 0 0 0 0 1023.0 1022.9 0.0
25/09:00pm 11.2 8.7 4.0 61 3.2 ENE 6 7 3 4 1022.9 1022.8 0.0
25/08:30pm 12.3 9.7 4.3 58 3.7 NE 7 9 4 5 1022.7 1022.6 0.0
25/08:00pm 12.0 9.6 4.2 59 3.6 ENE 6 7 3 4 1022.5 1022.4 0.0
25/07:30pm 12.8 9.5 4.5 57 3.8 ENE 11 11 6 6 1022.3 1022.2 0.0
25/07:00pm 13.8 10.8 4.1 52 4.5 ENE 9 11 5 6 1022.0 1021.8 0.0
25/06:30pm 14.6 12.0 4.0 49 4.9 NE 7 13 4 7 1021.9 1021.7 0.0
25/06:00pm 16.6 13.9 3.7 42 6.0 NE 7 9 4 5 1022.0 1021.8 0.0
25/05:30pm 18.5 16.1 4.3 39 6.9 ENE 6 11 3 6 1021.8 1021.6 0.0

Other Formats:

Comma delimited format used in spreadsheet applications
http://www.bom.gov.au/fwo/IDW60801/IDW60801.94417.axf

JavaScript Object Notation format (JSON) in row-major order
http://www.bom.gov.au/fwo/IDW60801/IDW60801.94417.json